Time;durP1;ratioP1;P1;durP2;ratioP2;P2;SDS_P1;SDS_P2;PMS_P1;PMS_P2;Temp;Humidity;BMP_temperature;BMP_pressure;BME280_temperature;BME280_humidity;BME280_pressure;Samples;Min_cycle;Max_cycle;Signal;HPM_P1;HPM_P2
2021/07/02 00:02:16;;;;;;;3.57;3.27;;;25.40;82.80;;;;;;6187846;23;20483;-94
2021/07/02 00:04:43;;;;;;;3.90;3.70;;;25.50;82.90;;;;;;6187847;23;20484;-95
2021/07/02 00:07:10;;;;;;;4.30;4.00;;;25.40;82.80;;;;;;6188328;23;20433;-95
2021/07/02 00:09:38;;;;;;;3.93;3.73;;;25.40;82.80;;;;;;6187223;23;20724;-95
2021/07/02 00:12:05;;;;;;;4.03;3.77;;;25.50;82.90;;;;;;6187735;23;20430;-94
2021/07/02 00:14:32;;;;;;;3.70;3.50;;;25.40;82.80;;;;;;6157393;23;20517;-95
2021/07/02 00:16:59;;;;;;;3.37;3.17;;;25.40;82.80;;;;;;6157744;23;20438;-94
2021/07/02 00:19:26;;;;;;;3.10;2.90;;;25.40;82.80;;;;;;6158465;23;20417;-94
2021/07/02 00:21:53;;;;;;;3.77;3.57;;;25.40;82.80;;;;;;6158643;23;20456;-94
2021/07/02 00:24:20;;;;;;;3.47;3.27;;;25.40;82.80;;;;;;6157334;23;20496;-94
2021/07/02 00:26:48;;;;;;;3.67;3.40;;;25.40;82.80;;;;;;6157411;23;20449;-95
2021/07/02 00:29:16;;;;;;;4.00;3.70;;;25.40;82.80;;;;;;6157423;23;20440;-94
2021/07/02 00:31:43;;;;;;;3.60;3.20;;;25.40;82.80;;;;;;6158041;23;20436;-94
2021/07/02 00:34:10;;;;;;;3.97;3.67;;;25.40;82.80;;;;;;6157842;23;20438;-95
2021/07/02 00:37:24;;;;;;;3.70;3.50;;;25.40;82.80;;;;;;6181766;23;20461;-94
2021/07/02 00:39:51;;;;;;;3.80;3.57;;;25.40;82.80;;;;;;6181509;23;20405;-95
2021/07/02 00:42:20;;;;;;;3.83;3.53;;;25.50;82.90;;;;;;6157104;23;20417;-95
2021/07/02 00:44:49;;;;;;;3.50;3.30;;;25.40;82.80;;;;;;6157854;23;20398;-94
2021/07/02 00:47:17;;;;;;;4.07;3.77;;;25.40;82.80;;;;;;6157969;23;20406;-95
2021/07/02 00:49:45;;;;;;;4.40;4.10;;;25.40;82.80;;;;;;6157539;23;20797;-94
2021/07/02 00:52:14;;;;;;;3.40;3.20;;;25.40;83.70;;;;;;6158025;23;20456;-95
2021/07/02 00:54:42;;;;;;;3.73;3.43;;;25.50;82.90;;;;;;6157629;23;20495;-95
2021/07/02 00:57:10;;;;;;;4.07;3.77;;;25.40;82.80;;;;;;6157847;23;20793;-95
2021/07/02 00:59:41;;;;;;;3.80;3.60;;;25.40;82.80;;;;;;6157196;23;20426;-95
2021/07/02 01:02:08;;;;;;;3.57;3.37;;;25.40;82.80;;;;;;6157247;23;20422;-94
2021/07/02 01:04:36;;;;;;;3.37;3.17;;;25.40;82.80;;;;;;6158635;23;20490;-94
2021/07/02 01:07:04;;;;;;;3.17;2.97;;;25.40;82.80;;;;;;6187484;23;20849;-94
2021/07/02 01:09:31;;;;;;;3.30;3.10;;;25.40;82.80;;;;;;6187641;23;20413;-94
2021/07/02 01:11:59;;;;;;;3.70;3.50;;;25.40;82.80;;;;;;6187264;23;20412;-95
2021/07/02 01:14:27;;;;;;;3.60;3.40;;;25.40;82.80;;;;;;6216354;23;20439;-94
2021/07/02 01:16:56;;;;;;;3.53;3.33;;;25.40;82.80;;;;;;6217295;23;20525;-94
2021/07/02 01:19:25;;;;;;;4.03;3.83;;;25.40;82.80;;;;;;6217633;23;20801;-94
2021/07/02 01:21:55;;;;;;;3.93;3.70;;;25.40;82.80;;;;;;6217253;23;20815;-95
2021/07/02 01:24:22;;;;;;;3.57;3.37;;;25.40;82.80;;;;;;6217245;23;20467;-94
2021/07/02 01:26:50;;;;;;;3.23;3.03;;;25.40;82.80;;;;;;6217877;23;20409;-95
2021/07/02 01:29:17;;;;;;;3.90;3.60;;;25.40;82.80;;;;;;6218203;23;20416;-94
2021/07/02 01:31:44;;;;;;;3.47;3.17;;;25.40;82.80;;;;;;6218074;23;20416;-95
2021/07/02 01:34:11;;;;;;;4.53;4.20;;;25.40;82.80;;;;;;6217316;23;20451;-96
2021/07/02 01:36:39;;;;;;;3.50;3.20;;;25.40;82.80;;;;;;6217155;23;20511;-95
2021/07/02 01:39:07;;;;;;;3.47;3.27;;;25.30;82.70;;;;;;6218188;23;20418;-95
2021/07/02 01:41:34;;;;;;;3.20;3.00;;;25.40;82.80;;;;;;6217437;23;20732;-95
2021/07/02 01:44:03;;;;;;;3.47;3.27;;;25.40;82.80;;;;;;6217979;23;20400;-95
2021/07/02 01:46:30;;;;;;;3.53;3.33;;;25.30;83.60;;;;;;6217970;23;20411;-95
2021/07/02 01:48:57;;;;;;;3.77;3.47;;;25.40;82.80;;;;;;6216816;23;20414;-95
2021/07/02 01:51:24;;;;;;;3.77;3.57;;;25.40;82.80;;;;;;6217364;23;20496;-95
2021/07/02 01:53:51;;;;;;;3.23;3.03;;;25.40;82.80;;;;;;6217824;23;20491;-95
2021/07/02 01:56:19;;;;;;;3.50;3.30;;;25.40;82.80;;;;;;6217425;23;20451;-95
2021/07/02 01:58:46;;;;;;;3.30;3.10;;;25.30;82.70;;;;;;6218543;23;20411;-95
2021/07/02 02:01:13;;;;;;;3.40;3.20;;;25.40;82.80;;;;;;6218739;23;20418;-95
2021/07/02 02:03:40;;;;;;;3.23;3.03;;;25.30;82.70;;;;;;6218819;23;20436;-95
2021/07/02 02:06:07;;;;;;;4.23;3.93;;;25.40;82.80;;;;;;6218504;23;20502;-95
2021/07/02 02:08:34;;;;;;;3.60;3.40;;;25.40;82.80;;;;;;6218357;23;20491;-96
2021/07/02 02:11:01;;;;;;;3.90;3.70;;;25.50;82.90;;;;;;6218596;23;20490;-95
2021/07/02 02:13:30;;;;;;;3.43;3.23;;;25.30;82.70;;;;;;6221814;23;20474;-95
2021/07/02 02:15:57;;;;;;;3.40;3.20;;;25.30;82.70;;;;;;6229252;23;20436;-95
2021/07/02 02:18:24;;;;;;;3.50;3.30;;;25.30;82.70;;;;;;6222912;23;20897;-95
2021/07/02 02:20:51;;;;;;;3.80;3.50;;;25.40;82.80;;;;;;6218095;23;20513;-95
2021/07/02 02:23:18;;;;;;;3.50;3.30;;;25.30;82.70;;;;;;6216548;23;21038;-95
2021/07/02 02:25:45;;;;;;;3.97;3.77;;;25.30;82.70;;;;;;6216669;23;20451;-95
2021/07/02 02:28:12;;;;;;;3.30;3.10;;;25.30;82.70;;;;;;6216835;23;20798;-95
2021/07/02 02:30:41;;;;;;;3.63;3.40;;;25.30;82.70;;;;;;6217095;23;20947;-95
2021/07/02 02:33:11;;;;;;;3.73;3.43;;;25.30;82.70;;;;;;6217107;23;20408;-95
2021/07/02 02:35:38;;;;;;;3.67;3.47;;;25.30;82.80;;;;;;6217579;23;20420;-95
2021/07/02 02:38:05;;;;;;;3.93;3.57;;;25.30;82.80;;;;;;6216610;23;20856;-95
2021/07/02 02:40:32;;;;;;;3.90;3.60;;;25.30;82.70;;;;;;6216894;23;20475;-96
2021/07/02 02:43:00;;;;;;;3.27;3.07;;;25.30;82.70;;;;;;6216474;23;20411;-95
2021/07/02 02:45:27;;;;;;;3.60;3.40;;;25.30;82.70;;;;;;6216938;23;20432;-95
2021/07/02 02:47:55;;;;;;;3.20;3.00;;;25.30;82.80;;;;;;6216502;23;20407;-95
2021/07/02 02:50:22;;;;;;;3.20;3.00;;;25.30;82.70;;;;;;6217632;23;20458;-95
2021/07/02 02:52:49;;;;;;;3.70;3.50;;;25.40;82.80;;;;;;6218121;23;20431;-95
2021/07/02 02:55:16;;;;;;;2.90;2.80;;;25.50;82.80;;;;;;6219162;23;20821;-95
2021/07/02 02:57:43;;;;;;;3.47;3.27;;;25.40;82.80;;;;;;6218635;23;20537;-96
2021/07/02 03:00:12;;;;;;;3.90;3.63;;;25.40;82.80;;;;;;6219087;23;20447;-95
2021/07/02 03:02:39;;;;;;;3.73;3.53;;;25.30;82.70;;;;;;6218590;23;20442;-95
2021/07/02 03:05:08;;;;;;;3.47;3.27;;;25.30;82.70;;;;;;6218584;23;20420;-96
2021/07/02 03:07:35;;;;;;;3.40;3.20;;;25.30;82.70;;;;;;6206357;23;20739;-95
2021/07/02 03:10:02;;;;;;;3.93;3.73;;;25.30;83.50;;;;;;6219086;23;20430;-95
2021/07/02 03:12:29;;;;;;;3.50;3.30;;;25.30;82.80;;;;;;6217855;23;20523;-95
2021/07/02 03:14:56;;;;;;;3.50;3.30;;;25.30;82.70;;;;;;6219050;23;20426;-94
2021/07/02 03:17:23;;;;;;;3.50;3.30;;;25.30;82.80;;;;;;6218309;23;20467;-95
2021/07/02 03:19:50;;;;;;;3.20;3.00;;;25.20;82.70;;;;;;6218724;23;20433;-95
2021/07/02 03:22:19;;;;;;;3.23;3.03;;;25.30;82.80;;;;;;6218215;23;21021;-95
2021/07/02 03:24:45;;;;;;;3.27;3.07;;;25.30;82.80;;;;;;6218364;23;20415;-95
2021/07/02 03:27:12;;;;;;;3.50;3.30;;;25.30;82.80;;;;;;6192113;23;20760;-95
2021/07/02 03:29:39;;;;;;;3.37;3.17;;;25.30;82.70;;;;;;6218335;23;20895;-95
2021/07/02 03:32:21;;;;;;;3.60;3.30;;;25.30;82.70;;;;;;6218629;23;20499;-95
2021/07/02 03:34:48;;;;;;;3.50;3.30;;;25.30;82.70;;;;;;6217932;23;20408;-95
2021/07/02 03:37:18;;;;;;;3.60;3.37;;;25.20;82.70;;;;;;6218362;23;20468;-95
2021/07/02 03:39:46;;;;;;;2.87;2.67;;;25.20;82.70;;;;;;6218254;23;20801;-95
2021/07/02 03:42:13;;;;;;;3.40;3.20;;;25.20;82.70;;;;;;6218605;23;20418;-95
2021/07/02 03:44:40;;;;;;;3.30;3.10;;;25.20;82.70;;;;;;6217690;23;20418;-96
2021/07/02 03:47:07;;;;;;;3.47;3.27;;;25.40;82.80;;;;;;6221838;22;20417;-94
2021/07/02 03:49:34;;;;;;;3.47;3.27;;;25.20;82.60;;;;;;6232791;22;20400;-94
2021/07/02 03:52:01;;;;;;;3.27;3.07;;;25.20;82.60;;;;;;6243341;22;20434;-95
2021/07/02 03:54:30;;;;;;;2.90;2.70;;;25.30;82.80;;;;;;6219092;23;20502;-95
2021/07/02 03:57:12;;;;;;;3.33;3.13;;;25.20;82.70;;;;;;6218011;23;20531;-95
2021/07/02 03:59:40;;;;;;;3.13;2.93;;;25.20;82.70;;;;;;6219295;23;20737;-95
2021/07/02 04:02:07;;;;;;;3.37;3.17;;;25.40;82.80;;;;;;6243705;22;20408;-94
2021/07/02 04:04:35;;;;;;;3.23;3.03;;;25.30;82.80;;;;;;6244844;22;20396;-94
2021/07/02 04:07:03;;;;;;;3.40;3.20;;;25.20;82.70;;;;;;6245004;22;20428;-95
2021/07/02 04:09:31;;;;;;;3.20;3.00;;;25.20;82.70;;;;;;6224757;22;20414;-95
2021/07/02 04:11:59;;;;;;;3.80;3.60;;;25.20;82.70;;;;;;6219061;23;20451;-94
2021/07/02 04:14:26;;;;;;;2.73;2.60;;;25.20;82.70;;;;;;6217488;23;20444;-96
2021/07/02 04:16:53;;;;;;;3.53;3.23;;;25.40;82.90;;;;;;6218588;23;20438;-96
2021/07/02 04:19:22;;;;;;;3.07;2.87;;;25.40;82.80;;;;;;6217198;23;20491;-94
2021/07/02 04:21:49;;;;;;;3.27;3.07;;;25.30;82.70;;;;;;6218945;23;20501;-95
2021/07/02 04:24:21;;;;;;;3.20;3.00;;;25.30;82.60;;;;;;6218599;23;20407;-95
2021/07/02 04:26:51;;;;;;;3.13;2.93;;;25.20;82.50;;;;;;6218810;23;20408;-94
2021/07/02 04:29:18;;;;;;;2.90;2.70;;;25.30;82.70;;;;;;6218894;23;20449;-94
2021/07/02 04:31:48;;;;;;;3.23;3.03;;;25.30;82.60;;;;;;6218442;23;20442;-95
2021/07/02 04:38:14;;;;;;;3.27;3.07;;;25.40;82.60;;;;;;6218240;23;20414;-95
2021/07/02 04:40:43;;;;;;;4.00;3.80;;;25.30;82.70;;;;;;6218226;23;20412;-95
2021/07/02 04:43:12;;;;;;;3.33;3.10;;;25.30;82.90;;;;;;6217599;23;20430;-95
2021/07/02 04:45:39;;;;;;;3.67;3.33;;;25.30;83.00;;;;;;6217703;23;20489;-95
2021/07/02 04:48:06;;;;;;;3.13;2.93;;;25.30;83.00;;;;;;6218175;23;20434;-96
2021/07/02 04:50:33;;;;;;;3.80;3.50;;;25.30;83.00;;;;;;6217668;23;20476;-95
2021/07/02 04:53:00;;;;;;;3.50;3.30;;;25.40;83.00;;;;;;6218986;23;20812;-96
2021/07/02 04:55:27;;;;;;;6.50;3.67;;;25.50;83.10;;;;;;6218163;23;20403;-95
2021/07/02 04:57:54;;;;;;;3.30;3.10;;;25.30;83.00;;;;;;6217648;23;20451;-95
2021/07/02 05:00:26;;;;;;;3.20;3.00;;;25.30;83.00;;;;;;6218340;23;20484;-95
2021/07/02 05:02:53;;;;;;;3.60;3.37;;;25.40;83.00;;;;;;6218857;23;20408;-95
2021/07/02 05:05:20;;;;;;;3.40;3.17;;;25.40;83.00;;;;;;6218137;23;20931;-95
2021/07/02 05:07:47;;;;;;;3.87;3.57;;;25.30;83.00;;;;;;6218483;23;20486;-95
2021/07/02 05:10:14;;;;;;;3.63;3.43;;;25.40;83.00;;;;;;6217627;23;20413;-96
2021/07/02 05:12:41;;;;;;;3.80;3.50;;;25.40;83.00;;;;;;6217544;23;20439;-96
2021/07/02 05:15:10;;;;;;;3.17;2.97;;;25.30;83.00;;;;;;6218893;23;20515;-92
2021/07/02 05:17:39;;;;;;;3.20;3.00;;;25.30;83.00;;;;;;6217646;23;20458;-92
2021/07/02 05:20:07;;;;;;;2.60;2.40;;;25.40;83.80;;;;;;6216939;23;20461;-91
2021/07/02 05:22:34;;;;;;;3.13;2.93;;;25.40;83.10;;;;;;6218269;23;20983;-91
2021/07/02 05:25:01;;;;;;;3.80;2.67;;;25.40;83.00;;;;;;6219421;23;20491;-91
2021/07/02 05:27:28;;;;;;;3.10;2.90;;;25.40;82.90;;;;;;6216457;23;20408;-91
2021/07/02 05:29:54;;;;;;;3.27;3.07;;;25.40;82.70;;;;;;6216186;23;20401;-91
2021/07/02 05:32:21;;;;;;;2.80;2.70;;;25.40;82.60;;;;;;6216257;23;20400;-90
2021/07/02 05:34:50;;;;;;;2.70;2.60;;;25.50;82.80;;;;;;6216552;23;20414;-94
2021/07/02 05:37:16;;;;;;;3.90;3.03;;;25.40;82.90;;;;;;6215824;23;20464;-90
2021/07/02 05:39:43;;;;;;;2.60;2.40;;;25.30;82.80;;;;;;6215579;23;20443;-90
2021/07/02 05:42:10;;;;;;;3.33;2.90;;;25.50;82.90;;;;;;6215664;23;20404;-91
2021/07/02 05:44:37;;;;;;;2.90;2.70;;;25.40;82.50;;;;;;6215273;23;20418;-90
2021/07/02 05:47:04;;;;;;;3.07;2.87;;;25.40;82.50;;;;;;6215668;23;20440;-90
2021/07/02 05:49:31;;;;;;;2.50;2.40;;;25.40;82.30;;;;;;6215610;23;20407;-90
2021/07/02 05:51:59;;;;;;;2.60;2.50;;;25.30;82.30;;;;;;6215526;23;20415;-90
2021/07/02 05:54:26;;;;;;;2.30;2.10;;;25.40;82.40;;;;;;6215828;23;20414;-90
2021/07/02 05:56:52;;;;;;;2.80;2.60;;;25.40;82.60;;;;;;6215845;23;20404;-91
2021/07/02 05:59:19;;;;;;;2.93;2.33;;;25.40;82.60;;;;;;6215248;23;20448;-90
2021/07/02 06:01:46;;;;;;;2.40;2.20;;;25.40;82.60;;;;;;6215613;23;20408;-90
2021/07/02 06:04:13;;;;;;;2.80;2.60;;;25.40;82.70;;;;;;6215418;23;20404;-90
2021/07/02 06:06:41;;;;;;;3.70;2.83;;;25.50;82.80;;;;;;6215842;23;20446;-90
2021/07/02 06:09:10;;;;;;;2.93;2.60;;;25.40;82.60;;;;;;6215639;23;20395;-90
2021/07/02 06:11:36;;;;;;;2.40;2.30;;;25.40;82.70;;;;;;6215676;23;20415;-90
2021/07/02 06:14:03;;;;;;;2.77;2.57;;;25.40;82.60;;;;;;6215350;23;20519;-90
2021/07/02 06:16:30;;;;;;;2.83;2.40;;;25.40;82.70;;;;;;6216011;23;20404;-90
2021/07/02 06:18:57;;;;;;;3.73;2.83;;;25.40;82.60;;;;;;6216005;23;20465;-90
2021/07/02 06:21:24;;;;;;;2.47;2.37;;;25.40;82.60;;;;;;6215693;23;20738;-90
2021/07/02 06:23:50;;;;;;;2.70;2.50;;;25.50;82.60;;;;;;6215860;23;20413;-90
2021/07/02 06:26:19;;;;;;;2.00;1.90;;;25.40;82.50;;;;;;6217490;23;20408;-91
2021/07/02 06:28:48;;;;;;;2.50;2.40;;;25.50;82.70;;;;;;6217766;23;20400;-92
2021/07/02 06:31:15;;;;;;;2.80;2.60;;;25.40;83.40;;;;;;6217798;23;20401;-90
2021/07/02 06:33:44;;;;;;;2.67;2.47;;;25.40;82.60;;;;;;6217764;23;20404;-90
2021/07/02 06:36:11;;;;;;;2.67;2.37;;;25.40;82.50;;;;;;6217728;23;20400;-92
2021/07/02 06:38:38;;;;;;;2.73;2.53;;;25.40;82.50;;;;;;6217458;23;20448;-90
2021/07/02 06:41:04;;;;;;;2.20;2.00;;;25.40;82.40;;;;;;6217482;23;20720;-91
2021/07/02 06:43:33;;;;;;;2.73;2.53;;;25.40;82.50;;;;;;6217504;23;20408;-90
2021/07/02 06:45:59;;;;;;;2.57;2.37;;;25.40;82.50;;;;;;6217789;23;20942;-93
2021/07/02 06:48:30;;;;;;;2.70;2.50;;;25.40;82.40;;;;;;6220222;23;20510;-95
2021/07/02 06:51:01;;;;;;;2.80;2.60;;;25.40;82.30;;;;;;6229194;22;20384;-96
2021/07/02 06:53:28;;;;;;;3.97;3.67;;;25.50;82.40;;;;;;6217457;23;20467;-89
2021/07/02 06:55:55;;;;;;;3.83;3.30;;;25.40;82.40;;;;;;6217078;23;20451;-89
2021/07/02 06:58:22;;;;;;;3.30;3.10;;;25.40;82.40;;;;;;6216717;23;20455;-89
2021/07/02 07:00:50;;;;;;;3.90;3.57;;;25.50;82.50;;;;;;6216791;23;20408;-88
2021/07/02 07:03:17;;;;;;;3.10;2.90;;;25.50;82.50;;;;;;6217046;23;20401;-89
2021/07/02 07:05:44;;;;;;;2.90;2.70;;;25.50;82.40;;;;;;6217564;23;20420;-90
2021/07/02 07:08:11;;;;;;;3.23;3.03;;;25.50;82.40;;;;;;6217261;23;20412;-90
2021/07/02 07:10:38;;;;;;;2.97;2.77;;;25.50;82.40;;;;;;6217487;23;20410;-92
2021/07/02 07:13:06;;;;;;;3.07;2.87;;;25.50;82.40;;;;;;6218020;23;20431;-94
2021/07/02 07:15:33;;;;;;;4.33;2.47;;;25.50;82.30;;;;;;6218720;23;20395;-93
2021/07/02 07:18:02;;;;;;;3.50;3.20;;;25.60;82.40;;;;;;6217298;23;20436;-92
2021/07/02 07:20:31;;;;;;;2.53;2.33;;;25.50;82.30;;;;;;6218074;23;20420;-94
2021/07/02 07:22:58;;;;;;;3.07;2.60;;;25.50;82.20;;;;;;6218671;23;20482;-93
2021/07/02 07:28:11;;;;;;;2.80;2.60;;;25.50;82.20;;;;;;6218434;23;20719;-93
2021/07/02 07:30:38;;;;;;;2.27;2.17;;;25.50;82.30;;;;;;6217691;23;20411;-93
2021/07/02 07:33:06;;;;;;;2.53;2.40;;;25.50;82.20;;;;;;6218316;23;20468;-93
2021/07/02 07:35:37;;;;;;;2.60;2.40;;;25.60;82.40;;;;;;6207015;23;20402;-93
2021/07/02 07:38:04;;;;;;;2.40;2.30;;;25.50;82.20;;;;;;6217925;23;20436;-93
2021/07/02 07:40:32;;;;;;;3.13;2.93;;;25.60;82.40;;;;;;6218328;23;20448;-94
2021/07/02 07:42:59;;;;;;;2.60;2.50;;;25.60;82.40;;;;;;6216805;23;20411;-89
2021/07/02 07:45:26;;;;;;;2.70;2.50;;;25.60;82.40;;;;;;6217106;23;20911;-91
2021/07/02 07:47:53;;;;;;;2.50;2.40;;;25.60;82.40;;;;;;6217689;23;20411;-91
2021/07/02 07:50:24;;;;;;;2.53;2.43;;;25.60;82.40;;;;;;6217677;23;20405;-91
2021/07/02 07:52:59;;;;;;;2.93;2.73;;;25.60;82.40;;;;;;6190712;23;20424;-90
2021/07/02 07:55:27;;;;;;;2.57;2.47;;;25.70;82.50;;;;;;6217499;23;20396;-90
2021/07/02 07:57:54;;;;;;;2.57;2.37;;;25.70;82.50;;;;;;6216736;23;20403;-89
2021/07/02 08:00:23;;;;;;;2.20;2.10;;;25.60;82.50;;;;;;6217249;23;20414;-88
2021/07/02 08:02:51;;;;;;;2.40;2.30;;;25.60;82.50;;;;;;6217126;23;20419;-89
2021/07/02 08:05:18;;;;;;;2.67;2.47;;;25.60;82.50;;;;;;6217416;23;20476;-90
2021/07/02 08:07:46;;;;;;;2.20;2.10;;;25.60;82.50;;;;;;6216391;23;20413;-89
2021/07/02 08:10:15;;;;;;;2.40;2.30;;;25.60;82.50;;;;;;6218399;23;20413;-90
2021/07/02 08:12:42;;;;;;;2.40;2.20;;;25.60;82.50;;;;;;6217929;23;20437;-94
2021/07/02 08:15:11;;;;;;;2.50;2.30;;;25.70;82.50;;;;;;6217645;23;20439;-95
2021/07/02 08:17:38;;;;;;;2.43;2.27;;;25.70;82.50;;;;;;6219010;23;20413;-92
2021/07/02 08:20:08;;;;;;;2.50;2.40;;;25.70;82.60;;;;;;6217002;23;20473;-92
2021/07/02 08:22:35;;;;;;;2.70;2.50;;;25.70;82.50;;;;;;6216777;23;20833;-90
2021/07/02 08:25:04;;;;;;;2.43;2.33;;;25.70;82.60;;;;;;6217445;23;20411;-93
2021/07/02 08:27:35;;;;;;;2.77;2.57;;;25.70;82.60;;;;;;6217382;23;20442;-90
2021/07/02 08:30:01;;;;;;;2.50;2.40;;;25.70;82.50;;;;;;6216697;23;20407;-89
2021/07/02 08:32:27;;;;;;;2.50;2.30;;;25.80;82.60;;;;;;6215872;23;20409;-89
2021/07/02 08:34:54;;;;;;;2.53;2.33;;;25.70;82.50;;;;;;6216024;23;20404;-89
2021/07/02 08:40:45;;;;;;;2.23;2.13;;;25.80;82.60;;;;;;6232757;22;20419;-94
2021/07/02 08:43:12;;;;;;;2.87;2.67;;;25.80;82.80;;;;;;6220861;23;20411;-93
2021/07/02 08:45:41;;;;;;;2.63;2.47;;;25.80;82.70;;;;;;6217513;23;20414;-93
2021/07/02 08:48:09;;;;;;;2.37;2.17;;;25.80;82.50;;;;;;6217166;23;20409;-94
2021/07/02 08:50:37;;;;;;;1.97;1.87;;;25.80;82.40;;;;;;6227211;23;20440;-93
2021/07/02 08:53:04;;;;;;;2.50;2.30;;;25.80;82.30;;;;;;6240727;23;20431;-93
2021/07/02 08:55:31;;;;;;;2.10;2.00;;;25.80;82.30;;;;;;6242130;23;20468;-93
2021/07/02 08:58:00;;;;;;;2.40;2.30;;;25.80;82.20;;;;;;6233090;22;20751;-94
2021/07/02 09:00:28;;;;;;;2.17;2.07;;;25.80;82.20;;;;;;6217835;23;20502;-93
2021/07/02 09:02:55;;;;;;;2.10;2.00;;;26.00;82.40;;;;;;6218476;23;20440;-93
2021/07/02 09:05:29;;;;;;;2.60;2.40;;;25.80;82.20;;;;;;6218561;23;20411;-93
2021/07/02 09:07:56;;;;;;;2.30;2.10;;;25.80;82.10;;;;;;6218591;23;20428;-93
2021/07/02 09:10:32;;;;;;;2.30;2.20;;;25.90;82.20;;;;;;6217367;23;20417;-92
2021/07/02 09:13:04;;;;;;;2.00;1.90;;;25.80;82.10;;;;;;6218231;23;20447;-94
2021/07/02 09:15:34;;;;;;;2.10;2.00;;;25.80;82.10;;;;;;6219019;23;20440;-94
2021/07/02 09:18:05;;;;;;;2.50;2.30;;;25.80;82.00;;;;;;6219665;23;20404;-94
2021/07/02 09:20:38;;;;;;;4.33;1.93;;;25.70;82.70;;;;;;6218400;23;20412;-94
2021/07/02 09:23:08;;;;;;;2.53;2.33;;;25.80;81.90;;;;;;6218519;23;20460;-94
2021/07/02 09:25:37;;;;;;;2.60;2.40;;;25.90;81.90;;;;;;6219149;23;20499;-94
2021/07/02 09:28:18;;;;;;;2.80;2.60;;;25.90;81.80;;;;;;6219955;23;20412;-95
2021/07/02 09:30:53;;;;;;;2.10;2.00;;;25.90;81.80;;;;;;6218337;23;20405;-93
2021/07/02 09:33:22;;;;;;;2.23;2.13;;;25.90;81.60;;;;;;6219536;23;20416;-93
2021/07/02 09:38:33;;;;;;;2.70;2.50;;;25.90;81.20;;;;;;6183660;23;20423;-95
2021/07/02 09:41:01;;;;;;;2.90;2.70;;;26.00;81.20;;;;;;6187672;23;20412;-94
2021/07/02 09:43:30;;;;;;;2.10;1.90;;;26.00;81.30;;;;;;6187319;23;20441;-95
2021/07/02 09:46:01;;;;;;;1.73;1.63;;;26.00;81.40;;;;;;6186760;23;20468;-95
2021/07/02 09:48:29;;;;;;;2.30;2.10;;;26.00;82.30;;;;;;6186330;23;20906;-95
2021/07/02 09:50:57;;;;;;;3.80;2.60;;;26.10;81.50;;;;;;6186412;23;20925;-92
2021/07/02 09:53:28;;;;;;;4.33;2.10;;;26.10;81.30;;;;;;6186464;23;20789;-92
2021/07/02 09:55:56;;;;;;;3.03;2.30;;;26.10;81.10;;;;;;6187114;23;20423;-92
2021/07/02 09:58:26;;;;;;;2.80;2.60;;;26.10;80.70;;;;;;6187991;23;20909;-92
2021/07/02 10:00:55;;;;;;;2.60;2.30;;;26.10;80.60;;;;;;6188796;23;20507;-91
2021/07/02 10:03:25;;;;;;;2.10;1.90;;;26.10;81.40;;;;;;6188609;23;20485;-92
2021/07/02 10:05:54;;;;;;;2.40;2.20;;;26.10;80.60;;;;;;6190365;23;20403;-94
2021/07/02 10:08:24;;;;;;;2.37;2.27;;;26.10;80.30;;;;;;6190221;23;20464;-95
2021/07/02 10:10:55;;;;;;;3.20;2.37;;;26.10;80.10;;;;;;6191608;23;20415;-96
2021/07/02 10:13:25;;;;;;;3.33;2.20;;;26.20;80.10;;;;;;6189350;23;20484;-91
2021/07/02 10:15:58;;;;;;;3.53;2.57;;;26.10;79.70;;;;;;6190418;23;20410;-94
2021/07/02 10:18:27;;;;;;;3.20;2.23;;;26.20;79.20;;;;;;6201459;23;20466;-95
2021/07/02 10:20:55;;;;;;;2.60;2.40;;;26.20;79.10;;;;;;6199067;23;20406;-96
2021/07/02 10:23:26;;;;;;;2.63;2.43;;;26.20;78.90;;;;;;6190012;23;20408;-96
2021/07/02 10:25:55;;;;;;;4.50;2.67;;;26.30;78.90;;;;;;6190778;23;20409;-96
2021/07/02 10:28:23;;;;;;;8.77;2.50;;;26.50;79.10;;;;;;6190131;23;20434;-96
2021/07/02 10:30:51;;;;;;;3.00;2.80;;;26.30;79.00;;;;;;6189749;23;20445;-96
2021/07/02 10:33:21;;;;;;;2.80;2.57;;;26.30;79.20;;;;;;6189116;23;20443;-95
2021/07/02 10:35:52;;;;;;;5.03;2.20;;;26.50;79.40;;;;;;6189274;23;20783;-96
2021/07/02 10:38:19;;;;;;;3.27;2.47;;;26.50;79.40;;;;;;6189570;23;20481;-96
2021/07/02 10:40:47;;;;;;;2.60;1.83;;;26.40;79.30;;;;;;6189622;23;20446;-96
2021/07/02 10:43:17;;;;;;;2.57;2.20;;;26.40;79.40;;;;;;6189087;23;20409;-96
2021/07/02 10:46:15;;;;;;;2.63;2.43;;;26.50;79.60;;;;;;6190108;23;20418;-94
2021/07/02 10:48:54;;;;;;;4.83;2.60;;;26.50;79.50;;;;;;6189921;23;20453;-96
2021/07/02 10:51:44;;;;;;;3.53;1.90;;;26.50;80.50;;;;;;6190492;23;20761;-96
2021/07/02 10:54:37;;;;;;;2.73;2.40;;;26.50;79.70;;;;;;6191404;23;20395;-95
2021/07/02 10:57:23;;;;;;;2.73;2.53;;;26.60;79.90;;;;;;6194786;23;20422;-95
2021/07/02 11:30:02;;;;;;;2.13;1.93;;;26.50;80.10;;;;;;6192314;23;20440;-95
2021/07/02 11:32:33;;;;;;;4.70;2.30;;;26.50;79.90;;;;;;6159083;23;20392;-94
2021/07/02 11:35:20;;;;;;;3.73;2.40;;;26.60;80.10;;;;;;6158835;23;20403;-93
2021/07/02 11:38:04;;;;;;;2.13;2.03;;;26.50;80.10;;;;;;6159867;23;20411;-93
2021/07/02 11:40:34;;;;;;;2.13;1.93;;;26.50;80.20;;;;;;6158906;23;20790;-93
2021/07/02 11:43:04;;;;;;;6.07;2.70;;;26.50;80.30;;;;;;6159570;23;20436;-93
2021/07/02 11:45:40;;;;;;;4.00;2.60;;;26.50;80.00;;;;;;6159033;23;20391;-93
2021/07/02 11:48:09;;;;;;;2.63;2.07;;;26.50;80.00;;;;;;6158888;23;20430;-91
2021/07/02 11:51:01;;;;;;;3.00;2.70;;;26.50;80.00;;;;;;6160843;23;20479;-90
2021/07/02 11:53:30;;;;;;;2.83;2.33;;;26.50;80.00;;;;;;6161037;23;20392;-91
2021/07/02 11:55:59;;;;;;;2.30;2.10;;;26.50;79.90;;;;;;6157634;23;20795;-91
2021/07/02 11:58:31;;;;;;;3.10;2.80;;;26.50;79.80;;;;;;6159012;23;20698;-91
2021/07/02 12:01:03;;;;;;;4.10;2.73;;;26.50;79.40;;;;;;6157550;23;20455;-91
2021/07/02 12:03:30;;;;;;;3.23;3.03;;;26.50;79.20;;;;;;6157264;23;20398;-91
2021/07/02 12:05:59;;;;;;;3.83;2.87;;;26.50;79.00;;;;;;6157805;23;20471;-91
2021/07/02 12:08:30;;;;;;;4.00;2.93;;;26.50;79.00;;;;;;6157059;23;20407;-91
2021/07/02 12:10:59;;;;;;;3.73;2.73;;;26.50;79.00;;;;;;6156261;23;20411;-91
2021/07/02 12:13:26;;;;;;;3.47;3.20;;;26.40;79.00;;;;;;6155286;23;20418;-91
2021/07/02 12:16:06;;;;;;;3.30;3.00;;;26.50;79.10;;;;;;6156136;23;20412;-90
2021/07/02 12:18:34;;;;;;;3.20;3.00;;;26.40;78.80;;;;;;6156017;23;20964;-91
2021/07/02 12:21:02;;;;;;;3.17;2.97;;;26.40;79.00;;;;;;6155825;23;20760;-90
2021/07/02 12:23:31;;;;;;;8.20;3.60;;;26.40;79.00;;;;;;6155510;23;20785;-91
2021/07/02 12:26:12;;;;;;;4.03;3.00;;;26.40;79.00;;;;;;6156278;23;20403;-88
2021/07/02 12:29:12;;;;;;;3.70;2.87;;;26.40;78.90;;;;;;6157499;23;20549;-88
2021/07/02 12:31:45;;;;;;;7.10;3.00;;;26.40;78.90;;;;;;6187404;23;20406;-88
2021/07/02 12:34:16;;;;;;;3.87;3.30;;;26.40;79.10;;;;;;6187084;23;20493;-87
2021/07/02 12:36:59;;;;;;;4.00;3.37;;;26.40;79.10;;;;;;6187037;23;20838;-87
2021/07/02 12:39:30;;;;;;;3.77;3.47;;;26.40;79.10;;;;;;6186794;23;20433;-87
2021/07/02 12:41:59;;;;;;;2.97;2.70;;;26.40;79.00;;;;;;6186512;23;20418;-88
2021/07/02 12:44:28;;;;;;;3.37;3.17;;;26.40;79.10;;;;;;6187112;23;20403;-88
2021/07/02 12:46:57;;;;;;;6.43;2.70;;;26.40;79.20;;;;;;6186770;23;20403;-95
2021/07/02 12:49:31;;;;;;;2.97;2.77;;;26.40;79.30;;;;;;6198239;23;20430;-95
2021/07/02 12:52:01;;;;;;;3.40;3.10;;;26.40;79.20;;;;;;6193034;23;20409;-95
2021/07/02 12:57:16;;;;;;;3.67;2.73;;;26.40;79.30;;;;;;6194648;23;20390;-96
2021/07/02 12:59:45;;;;;;;3.67;3.37;;;26.50;79.50;;;;;;6188385;23;20430;-96
2021/07/02 13:02:33;;;;;;;3.17;2.93;;;26.50;79.40;;;;;;6187570;23;20415;-95
2021/07/02 13:05:03;;;;;;;3.50;3.17;;;26.50;79.30;;;;;;6187510;23;20437;-96
2021/07/02 13:07:49;;;;;;;3.63;2.70;;;26.50;79.40;;;;;;6187815;23;20431;-96
2021/07/02 13:10:18;;;;;;;3.40;3.20;;;26.60;80.30;;;;;;6188922;23;20430;-96
2021/07/02 13:13:07;;;;;;;3.77;3.00;;;26.60;79.50;;;;;;6187831;23;20407;-96
2021/07/02 13:15:36;;;;;;;3.50;3.30;;;26.70;79.50;;;;;;6189736;23;20409;-95
2021/07/02 13:18:05;;;;;;;3.53;3.23;;;26.70;79.60;;;;;;6187584;23;20469;-96
2021/07/02 13:20:47;;;;;;;3.40;3.20;;;26.70;79.60;;;;;;6187765;23;20509;-94
2021/07/02 13:23:17;;;;;;;2.80;2.60;;;26.70;79.50;;;;;;6187739;23;20496;-95
2021/07/02 13:25:44;;;;;;;2.60;2.40;;;26.70;79.60;;;;;;6188948;23;20517;-96
2021/07/02 13:28:20;;;;;;;3.00;2.80;;;26.70;79.70;;;;;;6187718;23;20431;-96
2021/07/02 13:30:47;;;;;;;2.90;2.70;;;26.70;79.60;;;;;;6196730;23;20520;-93
2021/07/02 13:33:18;;;;;;;2.70;2.50;;;26.70;79.60;;;;;;6208349;23;20403;-95
2021/07/02 13:35:46;;;;;;;3.10;2.90;;;26.70;79.60;;;;;;6191400;23;20450;-95
2021/07/02 13:38:16;;;;;;;2.80;2.60;;;26.80;79.80;;;;;;6188894;23;20435;-95
2021/07/02 13:40:45;;;;;;;3.43;3.13;;;26.80;79.80;;;;;;6212799;23;20433;-96
2021/07/02 13:43:15;;;;;;;2.90;2.70;;;26.80;79.80;;;;;;6212789;23;20983;-96
2021/07/02 13:45:58;;;;;;;3.27;2.97;;;26.80;79.80;;;;;;6211274;23;20410;-96